Data for 07/03/2006

Time Sea-Level Adjusted Pressure Absolute Pressure Temperature Relative Humidity Dew Point   
(mb) (inHg) (mb) (inHg) (C) (F) (%) (C) (F)
00:05 1022 30.18 851 25.13 19.7 67.5 51 9.5 49.1
00:10 1022 30.18 851 25.13 19.7 67.4 52 9.6 49.2
00:15 1022 30.18 851 25.13 19.6 67.3 52 9.7 49.4
00:20 1022 30.18 851 25.13 19.6 67.3 52 9.7 49.5
00:25 1022 30.18 851 25.13 19.6 67.3 53 10 49.9
00:30 1022 30.18 851 25.13 19.5 67 54 10 50
00:35 1022 30.18 851 25.13 19.5 67.1 53 9.9 49.8
00:40 1022 30.18 851 25.13 19.6 67.3 53 9.8 49.7
00:45 1022 30.18 851 25.13 19.7 67.5 53 10 50
00:50 1022 30.18 851 25.13 19.7 67.4 53 10 50.1
00:55 1022 30.18 852 25.16 19.6 67.4 53 9.9 49.9
01:00 1022 30.18 852 25.16 19.6 67.3 53 9.8 49.7
01:05 1022 30.18 852 25.16 19.7 67.5 51 9.6 49.2
01:10 1022 30.18 852 25.16 19.9 67.8 51 9.5 49.1
01:15 1023 30.21 852 25.16 20.1 68.1 50 9.6 49.3
01:20 1023 30.21 852 25.16 20.1 68.2 50 9.6 49.3
01:25 1023 30.21 852 25.16 20.2 68.3 50 9.6 49.2
01:30 1023 30.21 852 25.16 20.1 68.1 50 9.5 49
01:35 1023 30.21 852 25.16 20 68 51 9.6 49.3
01:40 1023 30.21 852 25.16 20 67.9 51 9.5 49.2
01:45 1023 30.21 852 25.16 19.9 67.9 50 9.4 49
01:50 1023 30.21 852 25.16 19.9 67.9 50 9.3 48.8
01:55 1023 30.21 852 25.16 19.9 67.9 51 9.5 49.1
02:00 1023 30.21 852 25.16 19.8 67.6 51 9.4 48.9
02:05 1023 30.21 852 25.16 19.8 67.6 51 9.4 48.9
02:10 1023 30.21 852 25.16 19.7 67.4 52 9.5 49.2
02:15 1023 30.21 852 25.16 19.5 67 52 9.4 49
02:20 1023 30.21 852 25.16 19.4 67 52 9.4 48.9
02:25 1023 30.21 852 25.16 19.5 67 52 9.4 48.9
02:30 1023 30.21 852 25.16 19.5 67.2 51 9.2 48.5
02:35 1023 30.21 852 25.16 19.7 67.5 51 9.3 48.8
02:40 1023 30.21 853 25.19 19.8 67.6 50 9.2 48.6
02:45 1024 30.24 853 25.19 20 68 50 9.3 48.8
02:50 1024 30.24 853 25.19 19.8 67.7 52 9.9 49.9
02:55 1024 30.24 853 25.19 19.6 67.4 50 9.2 48.5
03:00 1024 30.24 853 25.19 19.9 67.7 48 8.5 47.4
03:05 1024 30.24 853 25.19 19.9 67.8 48 8.7 47.6
03:10 1024 30.24 853 25.19 19.8 67.6 48 8.7 47.6
03:15 1024 30.24 853 25.19 19.6 67.3 49 8.8 47.8
03:20 1024 30.24 853 25.19 19.4 66.9 51 9 48.3
03:25 1024 30.24 853 25.19 18.9 66.1 57 10.4 50.7
03:30 1024 30.24 853 25.19 17.9 64.2 60 10.1 50.3
03:35 1024 30.24 853 25.19 17.7 63.8 60 10 49.9
03:40 1023 30.21 853 25.19 17.7 63.8 59 9.7 49.5
03:45 1023 30.21 853 25.19 17.7 63.9 59 9.8 49.6
03:50 1023 30.21 852 25.16 17.7 63.9 58 9.5 49.2
03:55 1023 30.21 852 25.16 17.7 63.8 59 9.6 49.3
04:00 1023 30.21 852 25.16 17.6 63.6 60 9.8 49.7
04:05 1023 30.21 852 25.16 17.4 63.3 61 9.9 49.9
04:10 1023 30.21 852 25.16 17.2 63 62 10 50
04:15 1023 30.21 852 25.16 17.3 63.1 62 9.9 49.9
04:20 1023 30.21 852 25.16 17.3 63.1 62 10 49.9
04:25 1023 30.21 852 25.16 17.3 63.1 62 10 50
04:30 1023 30.21 852 25.16 17.4 63.3 61 9.8 49.7
04:35 1022 30.18 852 25.16 17.7 63.8 58 9.5 49.1
04:40 1022 30.18 852 25.16 17.8 64.1 58 9.6 49.3
04:45 1023 30.21 852 25.16 17.8 64.1 59 9.9 49.7
04:50 1023 30.21 852 25.16 17.6 63.6 61 10 50
04:55 1023 30.21 852 25.16 17.5 63.4 61 10 49.9
05:00 1023 30.21 853 25.19 17.6 63.6 58 9.4 48.9
05:05 1023 30.21 853 25.19 17.8 64 57 9.3 48.8
05:10 1023 30.21 853 25.19 17.9 64.2 58 9.5 49.2
05:15 1024 30.24 853 25.19 17.9 64.2 58 9.5 49.1
05:20 1024 30.24 853 25.19 17.9 64.2 56 9.2 48.5
05:25 1023 30.21 853 25.19 18 64.4 57 9.5 49.1
05:30 1024 30.24 853 25.19 18 64.4 56 9.2 48.6
05:35 1024 30.24 853 25.19 18.1 64.6 55 9.1 48.3
05:40 1024 30.24 853 25.19 18.3 64.9 56 9.5 49.1
05:45 1024 30.24 853 25.19 18.3 64.9 56 9.4 48.9
05:50 1024 30.24 853 25.19 18.4 65 56 9.4 49
05:55 1024 30.24 853 25.19 18.3 64.9 56 9.5 49.1
06:00 1024 30.24 854 25.22 18.1 64.6 58 9.9 49.8
06:05 1024 30.24 854 25.22 18 64.3 59 9.9 49.9
06:10 1024 30.24 854 25.22 17.8 64 60 10 49.9
06:15 1024 30.24 854 25.22 17.7 63.8 60 9.9 49.8
06:20 1024 30.24 854 25.22 17.6 63.6 61 10.1 50.1
06:25 1024 30.24 853 25.19 17 62.7 64 10.3 50.6
06:30 1024 30.24 853 25.19 16.7 62.1 65 10.3 50.5
06:35 1024 30.24 854 25.22 16.9 62.4 66 10.5 51
06:40 1024 30.24 854 25.22 16.9 62.4 67 10.7 51.3
06:45 1024 30.24 854 25.22 16.7 62.1 67 10.7 51.2
06:50 1024 30.24 854 25.22 16.8 62.2 68 11 51.8
06:55 1024 30.24 854 25.22 16.8 62.2 66 10.5 50.9
07:00 1024 30.24 854 25.22 16.8 62.2 66 10.4 50.7
07:05 1025 30.27 854 25.22 17 62.5 65 10.3 50.6
07:10 1025 30.27 854 25.22 17 62.7 64 10.2 50.3
07:15 1025 30.27 854 25.22 17.2 62.9 63 10.2 50.3
07:20 1025 30.27 854 25.22 17.5 63.5 61 10.1 50.2
07:25 1025 30.27 854 25.22 17.7 63.9 61 10.3 50.5
07:30 1024 30.24 854 25.22 17.7 63.8 61 10.2 50.4
07:35 1024 30.24 854 25.22 17.7 63.8 63 10.6 51.1
07:40 1024 30.24 854 25.22 17.7 63.8 63 10.5 51
07:45 1024 30.24 854 25.22 17.3 63.2 64 10.6 51.1
07:50 1024 30.24 854 25.22 17.2 62.9 64 10.4 50.7
07:55 1024 30.24 853 25.19 17.2 63 65 10.5 51
08:00 1024 30.24 853 25.19 17.2 62.9 65 10.7 51.2
08:05 1024 30.24 853 25.19 17.2 63 64 10.5 50.9
08:10 1024 30.24 853 25.19 17.4 63.3 65 10.9 51.6
08:15 1024 30.24 853 25.19 17.4 63.3 65 10.8 51.5
08:20 1024 30.24 853 25.19 17.5 63.4 64 10.7 51.2
08:25 1024 30.24 853 25.19 17.4 63.4 65 10.8 51.4
08:30 1024 30.24 853 25.19 17.4 63.4 63 10.5 50.8
08:35 1024 30.24 853 25.19 17.6 63.7 69 11.8 53.2
08:40 1024 30.24 853 25.19 17.6 63.7 67 11.4 52.5
08:45 1024 30.24 853 25.19 17.7 63.8 66 11.3 52.3
08:50 1024 30.24 853 25.19 18 64.5 65 11.4 52.5
08:55 1024 30.24 853 25.19 18.6 65.4 61 11 51.9
09:00 1024 30.24 853 25.19 18.7 65.6 60 11 51.7
09:05 1024 30.24 853 25.19 19 66.3 57 10.4 50.7
09:10 1024 30.24 853 25.19 19.4 66.9 56 10.4 50.7
09:15 1024 30.24 853 25.19 19.6 67.4 54 10.1 50.2
09:20 1024 30.24 853 25.19 19.7 67.5 52 9.8 49.7
09:25 1024 30.24 853 25.19 19.8 67.7 53 10 50
09:30 1024 30.24 853 25.19 20 68 52 10 49.9
09:35 1024 30.24 853 25.19 20.2 68.4 50 9.6 49.3
09:40 1024 30.24 853 25.19 20.7 69.2 48 9.6 49.2
09:45 1024 30.24 853 25.19 21.7 71 46 9.8 49.7
09:50 1024 30.24 853 25.19 21.9 71.4 48 10.4 50.8
09:55 1024 30.24 854 25.22 22 71.7 50 11.4 52.5
10:00 1024 30.24 854 25.22 22.1 71.9 52 11.9 53.4
10:05 1024 30.24 854 25.22 22.1 71.8 53 12.1 53.8
10:10 1024 30.24 854 25.22 21.6 70.9 52 11.5 52.7
10:15 1024 30.24 854 25.22 21.7 71 45 9.5 49.1
10:20 1024 30.24 854 25.22 22.4 72.4 45 10.2 50.3
10:25 1024 30.24 854 25.22 22.5 72.4 44 9.8 49.6
10:30 1024 30.24 854 25.22 23.3 74 39 8.7 47.6
10:35 1024 30.24 854 25.22 23 73.4 45 10.5 51
10:40 1024 30.24 854 25.22 23.2 73.7 41 9.2 48.5
10:45 1024 30.24 853 25.19 23.9 75 39 9.3 48.7
10:50 1024 30.24 853 25.19 24.4 75.9 39 9.6 49.3
10:55 1024 30.24 853 25.19 24.3 75.7 38 9.4 48.8
11:00 1024 30.24 853 25.19 24.7 76.5 37 9.1 48.4
11:05 1024 30.24 853 25.19 24 75.2 40 9.8 49.6
11:10 1024 30.24 853 25.19 23.9 75.1 39 9.4 49
11:15 1024 30.24 853 25.19 24.3 75.7 38 9.4 48.9
11:20 1024 30.24 853 25.19 24.7 76.5 36 8.9 47.9
11:25 1024 30.24 853 25.19 24.9 76.9 37 9.6 49.2
11:30 1024 30.24 853 25.19 23.8 74.8 38 8.7 47.6
11:35 1024 30.24 853 25.19 24.8 76.7 35 8.7 47.7
11:40 1024 30.24 853 25.19 25.2 77.4 35 9 48.2
11:45 1024 30.24 853 25.19 24.2 75.5 39 9.7 49.4
11:50 1024 30.24 853 25.19 24.9 76.7 38 9.8 49.6
11:55 1024 30.24 853 25.19 25.6 78.2 35 9.3 48.8
12:00 1024 30.24 853 25.19 26.2 79.1 34 9.2 48.6
12:05 1024 30.24 853 25.19 26.5 79.6 34 9.5 49.1
12:10 1024 30.24 853 25.19 26.3 79.3 32 8.6 47.6
12:15 1024 30.24 853 25.19 26.4 79.4 33 9.3 48.7
12:20 1024 30.24 853 25.19 26.3 79.3 33 9.1 48.4
12:25 1024 30.24 853 25.19 26.4 79.5 32 8.8 47.8
12:30 1024 30.24 853 25.19 26.4 79.6 32 8.9 47.9
12:35 1024 30.24 853 25.19 26.7 80.1 33 9.3 48.8
12:40 1024 30.24 853 25.19 26.4 79.4 34 9.5 49.1
12:45 1024 30.24 853 25.19 26 78.8 33 8.6 47.4
12:50 1024 30.24 853 25.19 26.6 79.9 33 9.5 49
12:55 1024 30.24 853 25.19 26.6 79.8 33 9.2 48.5
13:00 1024 30.24 853 25.19 26.7 80 33 9.4 48.8
13:05 1024 30.24 853 25.19 26.7 80.1 32 9 48.2
13:10 1024 30.24 853 25.19 27.1 80.9 33 9.6 49.3
13:15 1023 30.21 853 25.19 27.3 81.1 33 9.8 49.6
13:20 1023 30.21 853 25.19 27.3 81.2 33 9.9 49.8
13:25 1023 30.21 853 25.19 27.5 81.5 31 9.3 48.7
13:30 1023 30.21 853 25.19 27.6 81.6 32 9.8 49.6
13:35 1023 30.21 853 25.19 27.5 81.5 31 9.2 48.6
13:40 1023 30.21 852 25.16 27.8 82 32 9.7 49.4
13:45 1023 30.21 852 25.16 28.2 82.7 30 9.3 48.7
13:50 1023 30.21 852 25.16 28.5 83.3 30 9.5 49
13:55 1023 30.21 852 25.16 28 82.4 31 9.8 49.6
14:00 1023 30.21 852 25.16 27.1 80.8 31 8.7 47.7
14:05 1023 30.21 852 25.16 27.8 82 32 9.8 49.7
14:10 1023 30.21 852 25.16 28.4 83.1 30 9.6 49.3
14:15 1023 30.21 852 25.16 27.7 81.8 32 9.5 49.2
14:20 1023 30.21 852 25.16 27.7 81.9 30 9.1 48.4
14:25 1023 30.21 852 25.16 28.1 82.5 30 8.9 48.1
14:30 1023 30.21 852 25.16 28.5 83.4 30 9.8 49.6
14:35 1023 30.21 852 25.16 28.3 83 30 9.6 49.2
14:40 1023 30.21 852 25.16 28 82.4 31 9.8 49.6
14:45 1023 30.21 852 25.16 28 82.4 30 9 48.2
14:50 1023 30.21 852 25.16 28.1 82.6 30 9.4 48.9
14:55 1023 30.21 852 25.16 27.7 81.9 28 8.1 46.6
15:00 1023 30.21 852 25.16 27 80.5 31 8.8 47.8
15:05 1023 30.21 852 25.16 27.2 80.9 32 9.4 48.9
15:10 1023 30.21 852 25.16 27.7 81.9 31 9.2 48.5
15:15 1023 30.21 852 25.16 28 82.5 30 9.1 48.3
15:20 1023 30.21 852 25.16 28.3 83 28 8.6 47.5
15:25 1023 30.21 852 25.16 28.4 83.2 29 9 48.2
15:30 1023 30.21 852 25.16 27.9 82.1 29 8.6 47.4
15:35 1023 30.21 852 25.16 28.3 83 29 9.1 48.5
15:40 1023 30.21 852 25.16 28.4 83.1 29 9.1 48.4
15:45 1023 30.21 852 25.16 28 82.4 31 9.4 49
15:50 1023 30.21 852 25.16 28.2 82.7 28 8.5 47.2
15:55 1023 30.21 852 25.16 28.2 82.7 29 8.9 48.1
16:00 1023 30.21 852 25.16 27.6 81.7 31 9.2 48.6
16:05 1023 30.21 852 25.16 27.2 80.9 30 8.3 46.9
16:10 1023 30.21 852 25.16 26.9 80.3 31 8.5 47.4
16:15 1023 30.21 852 25.16 26.6 79.8 31 8.4 47.1
16:20 1023 30.21 852 25.16 26.9 80.4 30 8.3 46.9
16:25 1023 30.21 852 25.16 27.5 81.5 29 8.1 46.6
16:30 1023 30.21 852 25.16 28 82.3 30 9.2 48.6
16:35 1023 30.21 852 25.16 27.8 82 31 9.4 48.8
16:40 1023 30.21 852 25.16 28 82.3 30 9.3 48.7
16:45 1023 30.21 852 25.16 27.8 82.1 29 8.7 47.6
16:50 1023 30.21 852 25.16 27.2 80.9 33 9.8 49.7
16:55 1023 30.21 852 25.16 26.9 80.4 32 8.9 48.1
17:00 1023 30.21 852 25.16 26.9 80.5 33 9.4 48.9
17:05 1023 30.21 852 25.16 27 80.6 33 9.4 49
17:10 1023 30.21 852 25.16 27.4 81.3 31 9.1 48.4
17:15 1023 30.21 852 25.16 27.8 82 31 9.5 49
17:20 1023 30.21 852 25.16 28 82.3 31 9.3 48.8
17:25 1023 30.21 852 25.16 27.7 81.9 32 9.6 49.3
17:30 1023 30.21 852 25.16 27.9 82.3 31 9.4 48.9
17:35 1023 30.21 852 25.16 28 82.3 30 9.3 48.7
17:40 1023 30.21 852 25.16 27.4 81.3 32 9.4 48.9
17:45 1023 30.21 852 25.16 27.1 80.8 31 8.9 48.1
17:50 1023 30.21 852 25.16 27.3 81.2 30 8.7 47.6
17:55 1023 30.21 853 25.19 26.7 80.1 33 9.4 49
18:00 1023 30.21 853 25.19 26.9 80.4 31 8.4 47.2
18:05 1023 30.21 852 25.16 26.7 80.1 30 8 46.4
18:10 1023 30.21 852 25.16 26.5 79.6 31 8.2 46.7
18:15 1023 30.21 853 25.19 26.8 80.3 30 8.1 46.7
18:20 1023 30.21 853 25.19 26.5 79.7 31 8.3 46.9
18:25 1023 30.21 852 25.16 26.4 79.5 31 8 46.4
18:30 1023 30.21 852 25.16 26.2 79.1 31 7.8 46
18:35 1023 30.21 853 25.19 25.9 78.7 31 7.9 46.2
18:40 1024 30.24 853 25.19 26 78.8 37 10.4 50.8
18:45 1024 30.24 853 25.19 24.6 76.4 43 11.3 52.3
18:50 1024 30.24 853 25.19 23.6 74.6 44 10.9 51.6
18:55 1024 30.24 853 25.19 23 73.3 45 10.5 51
19:00 1024 30.24 853 25.19 22.5 72.4 47 10.7 51.3
19:05 1024 30.24 853 25.19 22.2 71.9 48 10.8 51.4
19:10 1024 30.24 853 25.19 21.8 71.2 50 11 51.8
19:15 1024 30.24 853 25.19 21.4 70.6 50 10.8 51.5
19:20 1024 30.24 853 25.19 21.1 70 51 10.6 51.1
19:25 1024 30.24 853 25.19 20.8 69.4 51 10.4 50.8
19:30 1024 30.24 853 25.19 20.6 69 52 10.4 50.8
19:35 1024 30.24 853 25.19 20.3 68.6 53 10.6 51.1
19:40 1024 30.24 853 25.19 20.1 68.1 55 10.8 51.4
19:45 1024 30.24 853 25.19 19.9 67.9 56 11 51.8
19:50 1024 30.24 853 25.19 19.9 67.8 56 11 51.8
19:55 1024 30.24 853 25.19 19.6 67.3 58 11.1 52
20:00 1024 30.24 853 25.19 19.5 67 58 11.2 52.2
20:05 1024 30.24 853 25.19 19.4 66.8 59 11.3 52.4
20:10 1024 30.24 853 25.19 19.4 66.8 59 11.3 52.3
20:15 1024 30.24 853 25.19 19.3 66.8 59 11.3 52.3
20:20 1024 30.24 853 25.19 19.3 66.7 59 11.2 52.2
20:25 1024 30.24 853 25.19 19.2 66.6 59 11.2 52.2
20:30 1024 30.24 853 25.19 19.2 66.5 60 11.3 52.3
20:35 1024 30.24 853 25.19 19.1 66.3 60 11.1 52.1
20:40 1024 30.24 854 25.22 19.1 66.3 60 11.2 52.2
20:45 1024 30.24 854 25.22 19 66.3 60 11.2 52.1
20:50 1024 30.24 853 25.19 19 66.2 60 11.1 51.9
20:55 1024 30.24 853 25.19 18.9 66.1 60 11.2 52.2
21:00 1024 30.24 854 25.22 18.8 65.9 61 11.2 52.2
21:05 1024 30.24 853 25.19 18.8 65.8 62 11.3 52.4
21:10 1024 30.24 854 25.22 18.6 65.6 62 11.4 52.5
21:15 1024 30.24 854 25.22 18.5 65.3 63 11.5 52.6
21:20 1024 30.24 854 25.22 18.4 65 64 11.6 52.8
21:25 1025 30.27 854 25.22 18.3 64.9 64 11.6 52.8
21:30 1024 30.24 854 25.22 18.2 64.8 65 11.6 52.8
21:35 1025 30.27 854 25.22 18.2 64.7 65 11.5 52.8
21:40 1025 30.27 854 25.22 18.2 64.7 65 11.5 52.7
21:45 1025 30.27 854 25.22 18.1 64.7 65 11.6 52.9
21:50 1025 30.27 854 25.22 18 64.5 66 11.6 52.9
21:55 1025 30.27 854 25.22 18.1 64.5 66 11.7 53.1
22:00 1025 30.27 854 25.22 17.9 64.2 67 11.8 53.2
22:05 1025 30.27 854 25.22 17.8 64 68 11.9 53.4
22:10 1025 30.27 854 25.22 17.7 63.8 68 11.7 53
22:15 1025 30.27 854 25.22 17.7 63.9 67 11.7 53
22:20 1025 30.27 854 25.22 17.6 63.7 67 11.5 52.8
22:25 1025 30.27 854 25.22 17.6 63.8 67 11.6 52.9
22:30 1025 30.27 854 25.22 17.6 63.6 68 11.7 53
22:35 1025 30.27 854 25.22 17.5 63.5 68 11.7 53
22:40 1025 30.27 854 25.22 17.5 63.4 69 11.8 53.2
22:45 1025 30.27 854 25.22 17.3 63.1 70 11.8 53.2
22:50 1025 30.27 854 25.22 17.3 63.1 70 11.8 53.2
22:55 1025 30.27 854 25.22 17.2 62.9 71 11.8 53.3
23:00 1025 30.27 854 25.22 17.2 62.9 70 11.8 53.2
23:05 1025 30.27 854 25.22 17.2 62.9 70 11.7 53.1
23:10 1025 30.27 854 25.22 17.2 62.9 70 11.7 53.1
23:15 1025 30.27 854 25.22 17.1 62.8 71 11.9 53.4
23:20 1025 30.27 854 25.22 17 62.6 72 12 53.5
23:25 1025 30.27 854 25.22 17 62.6 72 12 53.7
23:30 1025 30.27 854 25.22 16.9 62.4 73 12.1 53.8
23:35 1025 30.27 854 25.22 16.8 62.2 74 12.1 53.7
23:40 1025 30.27 854 25.22 16.7 62.1 74 12.1 53.8
23:45 1025 30.27 854 25.22 16.6 61.9 75 12.2 54
23:50 1025 30.27 854 25.22 16.6 61.9 76 12.3 54.2
23:55 1025 30.27 854 25.22 16.7 62 76 12.4 54.3
24:00 1025 30.27 854 25.22 16.6 61.9 76 12.5 54.5